Time;durP1;ratioP1;P1;durP2;ratioP2;P2;SDS_P1;SDS_P2;PMS_P1;PMS_P2;Temp;Humidity;BMP_temperature;BMP_pressure;BME280_temperature;BME280_humidity;BME280_pressure;Samples;Min_cycle;Max_cycle;Signal;HPM_P1;HPM_P2
2022/02/01 00:03:34;;;;;;;9.48;8.55;;;31.70;99.90;;;;;;5073891;28;20025;-77
2022/02/01 00:09:23;;;;;;;;;;;31.70;99.90;;;;;;5074178;28;20492;-76
2022/02/01 00:35:29;;;;;;;12.27;9.57;;;32.50;99.90;;;;;;5073518;28;20035;-77
2022/02/01 00:38:04;;;;;;;10.73;9.50;;;32.50;99.90;;;;;;5073301;28;20446;-77
2022/02/01 00:40:33;;;;;;;9.70;8.60;;;32.60;99.90;;;;;;5073233;28;20385;-77
2022/02/01 00:43:00;;;;;;;10.38;9.25;;;32.70;99.90;;;;;;5073403;28;20020;-77
2022/02/01 00:45:28;;;;;;;13.05;9.38;;;32.80;99.90;;;;;;5071728;28;20020;-76
2022/02/01 00:47:55;;;;;;;10.85;9.52;;;32.80;99.90;;;;;;5073083;28;20016;-77
2022/02/01 00:50:23;;;;;;;10.35;9.18;;;33.00;99.90;;;;;;5073082;28;20021;-77
2022/02/01 00:52:51;;;;;;;10.57;9.48;;;33.10;99.90;;;;;;5073129;28;20063;-78
2022/02/01 00:55:18;;;;;;;9.65;8.77;;;33.30;99.90;;;;;;5072980;28;20095;-78
2022/02/01 00:57:46;;;;;;;10.18;8.98;;;33.30;99.90;;;;;;5073000;28;20394;-77
2022/02/01 01:00:14;;;;;;;9.23;8.38;;;33.10;99.90;;;;;;5073225;28;20020;-77
2022/02/01 01:02:41;;;;;;;9.52;8.50;;;33.10;99.90;;;;;;5071559;28;20032;-77
2022/02/01 01:05:09;;;;;;;9.38;7.88;;;33.40;99.90;;;;;;5072600;28;20082;-77
2022/02/01 01:07:36;;;;;;;10.43;8.35;;;33.40;99.90;;;;;;5072551;28;20059;-76
2022/02/01 01:10:06;;;;;;;9.88;8.52;;;33.40;99.90;;;;;;5072871;28;20066;-76
2022/02/01 01:12:40;;;;;;;11.05;7.50;;;33.50;99.90;;;;;;5072843;28;20020;-78
2022/02/01 01:15:18;;;;;;;9.57;7.53;;;33.70;99.90;;;;;;5072883;28;20028;-77
2022/02/01 01:18:24;;;;;;;10.45;7.38;;;34.00;99.90;;;;;;5073070;28;20017;-76
2022/02/01 01:45:07;;;;;;;8.68;6.60;;;34.70;99.90;;;;;;5076697;28;20036;-79
2022/02/01 01:53:19;;;;;;;9.10;6.07;;;34.60;99.90;;;;;;5076763;28;20028;-79
2022/02/01 01:55:50;;;;;;;9.10;6.13;;;34.60;99.90;;;;;;5077551;28;20020;-78
2022/02/01 01:58:18;;;;;;;11.63;6.70;;;34.60;99.90;;;;;;5081484;28;20055;-79
2022/02/01 02:03:33;;;;;;;7.65;5.53;;;34.60;99.90;;;;;;5080788;28;20116;-79
2022/02/01 02:06:01;;;;;;;7.82;6.50;;;34.90;99.90;;;;;;5079090;28;20544;-78
2022/02/01 02:08:30;;;;;;;10.70;5.82;;;35.00;99.90;;;;;;5077253;28;20075;-78
2022/02/01 02:11:03;;;;;;;8.25;5.60;;;35.00;99.90;;;;;;5077219;28;20027;-78
2022/02/01 02:16:19;;;;;;;8.70;5.57;;;35.00;99.90;;;;;;5078071;28;20027;-78
2022/02/01 02:18:47;;;;;;;9.73;5.55;;;35.10;99.90;;;;;;5078944;28;20253;-80
2022/02/01 02:21:16;;;;;;;9.65;5.95;;;34.90;99.90;;;;;;5079037;28;20092;-81
2022/02/01 02:23:45;;;;;;;8.70;6.05;;;34.90;99.90;;;;;;5079527;28;20020;-80
2022/02/01 02:26:14;;;;;;;8.48;6.22;;;34.70;99.90;;;;;;5077335;28;20039;-80
2022/02/01 02:28:42;;;;;;;9.10;6.60;;;34.50;99.90;;;;;;5077139;28;20047;-80
2022/02/01 02:31:27;;;;;;;10.63;6.75;;;34.40;99.90;;;;;;5079106;28;20047;-80
2022/02/01 02:34:03;;;;;;;11.48;6.20;;;34.40;99.90;;;;;;5075219;28;20401;-81
2022/02/01 02:36:32;;;;;;;9.30;6.88;;;34.60;99.90;;;;;;5077564;28;20460;-81
2022/02/01 02:39:08;;;;;;;9.52;6.50;;;34.60;99.90;;;;;;5078645;28;20393;-81
2022/02/01 02:41:48;;;;;;;7.93;6.30;;;34.80;99.90;;;;;;5078060;28;20095;-81
2022/02/01 02:49:48;;;;;;;7.40;6.32;;;35.30;99.90;;;;;;5084460;28;20070;-82
2022/02/01 02:52:16;;;;;;;6.78;5.35;;;35.40;99.90;;;;;;5079421;28;20016;-80
2022/02/01 02:54:43;;;;;;;8.95;5.78;;;35.20;99.90;;;;;;5076329;28;20024;-81
2022/02/01 02:57:11;;;;;;;7.45;5.70;;;35.50;99.90;;;;;;5077790;28;20024;-80
2022/02/01 02:59:39;;;;;;;10.77;5.50;;;35.40;99.90;;;;;;5077502;28;20119;-81
2022/02/01 03:02:08;;;;;;;10.30;5.80;;;35.20;99.90;;;;;;5077160;28;20462;-80
2022/02/01 03:04:37;;;;;;;10.40;6.03;;;35.00;99.90;;;;;;5081210;28;20048;-81
2022/02/01 03:07:06;;;;;;;7.03;5.23;;;35.00;99.90;;;;;;5077469;28;20086;-80
2022/02/01 03:09:39;;;;;;;10.35;5.57;;;35.00;99.90;;;;;;5081271;28;20020;-80
2022/02/01 03:12:08;;;;;;;10.02;5.40;;;35.10;99.90;;;;;;5077834;28;20033;-79
2022/02/01 03:14:57;;;;;;;6.80;4.80;;;35.30;99.90;;;;;;5078038;28;20040;-80
2022/02/01 03:19:47;;;;;;;10.50;5.22;;;35.50;99.90;;;;;;5075851;28;20025;-80
2022/02/01 03:20:13;;;;;;;8.07;4.85;;;35.20;99.90;;;;;;5075115;28;20031;-78
2022/02/01 03:22:41;;;;;;;9.68;5.90;;;35.10;99.90;;;;;;5074736;28;20066;-79
2022/02/01 03:25:11;;;;;;;8.27;5.13;;;35.20;99.90;;;;;;5073685;28;20025;-79
2022/02/01 03:27:38;;;;;;;9.32;5.18;;;35.20;99.90;;;;;;5075042;28;20381;-80
2022/02/01 03:30:06;;;;;;;7.95;4.80;;;35.30;99.90;;;;;;5076742;28;20407;-80
2022/02/01 03:32:33;;;;;;;8.20;4.78;;;35.50;99.90;;;;;;5077800;28;20020;-81
2022/02/01 03:35:01;;;;;;;5.78;4.45;;;35.60;99.90;;;;;;5073701;28;20458;-80
2022/02/01 03:37:28;;;;;;;8.02;4.57;;;35.20;99.90;;;;;;5074953;28;20030;-79
2022/02/01 03:39:55;;;;;;;6.32;5.10;;;35.60;99.90;;;;;;5075467;28;20044;-80
2022/02/01 03:42:25;;;;;;;6.13;4.72;;;35.30;99.90;;;;;;5075697;28;20074;-80
2022/02/01 03:44:52;;;;;;;5.97;4.45;;;34.80;99.90;;;;;;5079702;28;20136;-81
2022/02/01 03:47:20;;;;;;;6.13;4.30;;;34.60;99.90;;;;;;5075231;28;20439;-80
2022/02/01 03:49:47;;;;;;;5.60;4.18;;;34.40;99.90;;;;;;5076733;28;20024;-80
2022/02/01 03:52:14;;;;;;;6.43;4.35;;;34.30;99.90;;;;;;5078344;28;20051;-80
2022/02/01 03:54:42;;;;;;;6.82;4.43;;;34.40;99.90;;;;;;5074402;28;20025;-78
2022/02/01 03:57:14;;;;;;;6.03;3.97;;;34.50;99.90;;;;;;5072553;28;20091;-78
2022/02/01 03:59:44;;;;;;;7.90;4.30;;;34.30;99.90;;;;;;5072597;28;20024;-78
2022/02/01 04:02:12;;;;;;;5.38;4.10;;;34.10;99.90;;;;;;5072618;28;20028;-78
2022/02/01 04:04:40;;;;;;;7.47;4.53;;;33.70;99.90;;;;;;5073557;28;20037;-78
2022/02/01 04:07:09;;;;;;;6.18;4.30;;;33.60;99.90;;;;;;5072691;28;20063;-78
2022/02/01 04:09:36;;;;;;;6.07;4.23;;;33.50;99.90;;;;;;5072408;28;20178;-78
2022/02/01 04:12:06;;;;;;;6.25;4.28;;;33.20;99.90;;;;;;5073573;28;20027;-78
2022/02/01 04:14:34;;;;;;;;;;;33.00;99.90;;;;;;5074178;28;20089;-78
2022/02/01 04:17:05;;;;;;;6.88;4.45;;;33.10;99.90;;;;;;5073495;28;19983;-78
2022/02/01 04:19:33;;;;;;;5.60;4.07;;;32.80;99.90;;;;;;5073552;28;20028;-78
2022/02/01 04:22:02;;;;;;;7.43;4.20;;;32.70;99.90;;;;;;5072166;28;20040;-78
2022/02/01 04:24:32;;;;;;;6.53;4.68;;;32.80;99.90;;;;;;5073609;28;20107;-78
2022/02/01 04:27:00;;;;;;;8.10;5.20;;;32.80;99.90;;;;;;5072332;28;20111;-80
2022/02/01 04:29:28;;;;;;;7.38;4.22;;;32.70;99.90;;;;;;5078269;28;20388;-78
2022/02/01 04:31:55;;;;;;;9.70;4.70;;;32.60;99.90;;;;;;5074458;28;20024;-78
2022/02/01 04:34:23;;;;;;;6.80;4.65;;;32.40;99.90;;;;;;5073316;28;20017;-78
2022/02/01 04:39:54;;;;;;;6.95;4.40;;;32.30;99.90;;;;;;5074429;28;20035;-79
2022/02/01 04:42:22;;;;;;;7.82;5.00;;;32.20;99.90;;;;;;5073779;28;20020;-78
2022/02/01 04:44:49;;;;;;;7.45;4.47;;;32.00;99.90;;;;;;5074013;28;20032;-80
2022/02/01 04:47:17;;;;;;;7.20;4.88;;;32.00;99.90;;;;;;5078039;28;20046;-79
2022/02/01 04:49:45;;;;;;;7.13;4.75;;;31.90;99.90;;;;;;5075248;28;20362;-79
2022/02/01 04:52:13;;;;;;;7.45;5.38;;;31.90;99.90;;;;;;5072921;28;20381;-78
2022/02/01 04:54:40;;;;;;;7.38;5.30;;;31.90;99.90;;;;;;5073473;28;20051;-78
2022/02/01 04:57:07;;;;;;;8.88;5.40;;;31.90;99.90;;;;;;5074190;28;20020;-79
2022/02/01 04:59:35;;;;;;;8.30;5.82;;;31.70;99.90;;;;;;5073870;28;20028;-79
2022/02/01 05:02:02;;;;;;;6.63;5.63;;;31.60;99.90;;;;;;5073236;28;20032;-79
2022/02/01 05:04:30;;;;;;;7.47;5.70;;;31.40;99.90;;;;;;5073628;28;20055;-79
2022/02/01 05:06:57;;;;;;;9.27;6.53;;;31.30;99.90;;;;;;5071447;28;20148;-79
2022/02/01 05:09:26;;;;;;;7.40;6.45;;;31.20;99.90;;;;;;5072970;28;20041;-78
2022/02/01 05:11:56;;;;;;;10.13;6.22;;;31.00;99.90;;;;;;5073799;28;20021;-79
2022/02/01 05:14:26;;;;;;;8.70;6.78;;;30.80;99.90;;;;;;5074877;28;20028;-78
2022/02/01 05:22:15;;;;;;;10.90;8.82;;;30.20;99.90;;;;;;5073177;28;20107;-77
2022/02/01 05:24:43;;;;;;;15.48;8.20;;;29.90;99.90;;;;;;5072704;28;20029;-76
2022/02/01 05:27:13;;;;;;;14.18;7.90;;;29.70;99.90;;;;;;5071320;28;20052;-76
2022/02/01 05:29:41;;;;;;;10.80;8.43;;;29.60;99.90;;;;;;5071292;28;20039;-75
2022/02/01 05:32:24;;;;;;;9.65;8.43;;;29.40;99.90;;;;;;5071332;28;20025;-77
2022/02/01 05:34:56;;;;;;;11.77;9.05;;;29.30;99.90;;;;;;5072407;28;20020;-77
2022/02/01 05:37:24;;;;;;;10.38;8.75;;;29.40;99.90;;;;;;5072512;28;20028;-76
2022/02/01 05:39:52;;;;;;;9.35;8.35;;;29.30;99.90;;;;;;5071155;28;20036;-76
2022/02/01 05:42:25;;;;;;;10.65;8.32;;;29.30;99.90;;;;;;5071207;28;20170;-76
2022/02/01 05:44:53;;;;;;;12.82;8.98;;;29.20;99.90;;;;;;5071089;28;20024;-76
2022/02/01 05:47:20;;;;;;;11.15;9.32;;;29.20;99.90;;;;;;5071077;28;20064;-76
2022/02/01 05:49:48;;;;;;;12.05;9.27;;;29.20;99.90;;;;;;5071033;28;20021;-76
2022/02/01 05:52:15;;;;;;;10.13;9.23;;;29.10;99.90;;;;;;5071095;28;20023;-76
2022/02/01 05:54:42;;;;;;;9.25;8.25;;;29.10;99.90;;;;;;5070888;28;20111;-77
2022/02/01 05:57:10;;;;;;;10.18;8.80;;;28.90;99.90;;;;;;5072305;28;20078;-77
2022/02/01 05:59:38;;;;;;;10.32;9.00;;;28.90;99.90;;;;;;5072305;28;20392;-76
2022/02/01 06:02:06;;;;;;;9.43;7.30;;;28.80;99.90;;;;;;5071004;28;20024;-76
2022/02/01 06:04:34;;;;;;;9.68;7.93;;;28.60;99.90;;;;;;5070729;28;20036;-76
2022/02/01 06:07:01;;;;;;;10.05;8.32;;;28.60;99.90;;;;;;5072276;28;20112;-76
2022/02/01 06:09:29;;;;;;;10.00;8.18;;;28.80;99.90;;;;;;5072134;28;20037;-75
2022/02/01 06:11:56;;;;;;;11.55;8.85;;;28.80;99.90;;;;;;5070998;28;20052;-76
2022/02/01 06:14:23;;;;;;;10.88;8.05;;;29.30;99.90;;;;;;5072213;28;20020;-75
2022/02/01 06:19:36;;;;;;;7.90;7.10;;;29.10;99.90;;;;;;5072028;28;20156;-77
2022/02/01 06:22:08;;;;;;;7.60;6.80;;;29.20;99.90;;;;;;5072030;28;20032;-77
2022/02/01 06:24:37;;;;;;;8.07;6.68;;;28.80;99.90;;;;;;5070712;28;20027;-76
2022/02/01 06:27:05;;;;;;;8.07;6.97;;;29.00;99.90;;;;;;5072207;28;20435;-78
2022/02/01 06:29:32;;;;;;;7.75;6.93;;;28.80;99.90;;;;;;5071935;28;20021;-78
2022/02/01 06:32:00;;;;;;;11.02;6.78;;;28.50;99.90;;;;;;5075682;28;20043;-77
2022/02/01 06:34:27;;;;;;;7.82;6.15;;;28.50;99.90;;;;;;5074107;28;20025;-77
2022/02/01 06:36:55;;;;;;;7.15;6.28;;;28.40;99.90;;;;;;5075444;28;20485;-76
2022/02/01 06:39:22;;;;;;;7.20;6.10;;;28.30;99.90;;;;;;5075203;28;20107;-76
2022/02/01 06:41:49;;;;;;;10.27;6.47;;;28.20;99.90;;;;;;5075300;28;20473;-78
2022/02/01 06:44:17;;;;;;;7.00;5.95;;;28.10;99.90;;;;;;5073917;28;20134;-77
2022/02/01 06:46:44;;;;;;;7.45;6.45;;;28.10;99.90;;;;;;5075028;28;20024;-76
2022/02/01 06:49:11;;;;;;;6.45;5.45;;;28.00;99.90;;;;;;5073806;28;20061;-77
2022/02/01 06:51:40;;;;;;;8.45;6.47;;;27.70;99.90;;;;;;5075187;28;20111;-76
2022/02/01 06:54:07;;;;;;;7.05;6.03;;;27.60;99.90;;;;;;5073902;28;20033;-76
2022/02/01 06:56:36;;;;;;;7.25;6.00;;;27.40;99.90;;;;;;5075051;28;20020;-77
2022/02/01 06:59:08;;;;;;;6.72;5.50;;;27.30;99.90;;;;;;5075015;28;20029;-77
2022/02/01 07:01:35;;;;;;;6.80;5.55;;;27.00;99.90;;;;;;5075006;28;20503;-76
2022/02/01 07:04:04;;;;;;;5.88;5.28;;;26.80;99.90;;;;;;5074691;28;20166;-76
2022/02/01 07:06:33;;;;;;;8.15;5.95;;;26.70;99.90;;;;;;5074847;28;20063;-77
2022/02/01 07:09:02;;;;;;;6.90;5.23;;;26.60;99.90;;;;;;5074941;28;20123;-76
2022/02/01 07:11:30;;;;;;;5.55;5.05;;;26.50;99.90;;;;;;5073478;28;20025;-76
2022/02/01 07:13:58;;;;;;;6.97;5.60;;;26.50;99.90;;;;;;5074775;28;20017;-76
2022/02/01 07:16:25;;;;;;;5.32;4.75;;;26.50;99.90;;;;;;5073373;28;20111;-76
2022/02/01 07:18:52;;;;;;;7.68;5.00;;;26.50;99.90;;;;;;5074708;28;20028;-76
2022/02/01 07:21:21;;;;;;;6.72;4.63;;;26.50;99.90;;;;;;5074599;28;20052;-76
2022/02/01 07:23:48;;;;;;;5.53;5.03;;;26.60;99.90;;;;;;5074628;28;20031;-76
2022/02/01 07:26:18;;;;;;;6.85;4.63;;;26.60;99.90;;;;;;5074523;28;20021;-77
2022/02/01 07:28:47;;;;;;;7.43;5.28;;;26.60;99.90;;;;;;5073233;28;20031;-76
2022/02/01 07:31:14;;;;;;;5.18;4.63;;;26.60;99.90;;;;;;5074383;28;20032;-76
2022/02/01 07:33:41;;;;;;;6.43;5.00;;;26.50;99.90;;;;;;5073060;28;20016;-78
2022/02/01 07:36:15;;;;;;;7.07;4.88;;;26.40;99.90;;;;;;5072843;28;20528;-76
2022/02/01 07:38:43;;;;;;;5.97;4.50;;;26.30;99.90;;;;;;5073102;28;20031;-77
2022/02/01 07:41:10;;;;;;;4.43;4.03;;;26.20;99.90;;;;;;5074103;28;20025;-76
2022/02/01 07:43:37;;;;;;;5.45;4.43;;;26.10;99.90;;;;;;5074246;28;20024;-76
2022/02/01 07:46:08;;;;;;;7.75;4.68;;;25.80;99.90;;;;;;5072707;28;20032;-77
2022/02/01 07:48:36;;;;;;;7.88;5.45;;;25.70;99.90;;;;;;5074193;28;20017;-77
2022/02/01 07:51:04;;;;;;;5.82;4.90;;;25.50;99.90;;;;;;5073960;28;20017;-76
2022/02/01 07:53:32;;;;;;;7.18;5.65;;;25.30;99.90;;;;;;5072747;28;20021;-76
2022/02/01 07:55:59;;;;;;;10.48;6.50;;;25.10;99.90;;;;;;5074011;28;20028;-76
2022/02/01 07:58:27;;;;;;;10.10;6.75;;;25.00;99.90;;;;;;5072584;28;20056;-74
2022/02/01 08:00:54;;;;;;;9.57;7.78;;;24.90;99.90;;;;;;5073927;28;20025;-74
2022/02/01 08:03:21;;;;;;;10.63;8.68;;;24.90;99.90;;;;;;5072333;28;20430;-74
2022/02/01 08:05:49;;;;;;;10.55;8.23;;;24.90;99.90;;;;;;5073517;28;20043;-74
2022/02/01 08:08:16;;;;;;;13.20;9.45;;;24.90;99.90;;;;;;5072252;28;20393;-74
2022/02/01 08:10:48;;;;;;;10.65;9.45;;;24.90;99.90;;;;;;5073588;28;20032;-74
2022/02/01 08:18:49;;;;;;;12.27;10.93;;;24.80;99.90;;;;;;5073456;28;20052;-75
2022/02/01 08:21:26;;;;;;;12.32;10.18;;;24.90;99.90;;;;;;5073390;28;20031;-74
2022/02/01 08:23:55;;;;;;;11.32;10.02;;;24.80;99.90;;;;;;5073340;28;20021;-75
2022/02/01 08:26:25;;;;;;;9.95;8.95;;;24.80;99.90;;;;;;5073432;28;20470;-75
2022/02/01 08:28:52;;;;;;;11.32;10.23;;;24.80;99.90;;;;;;5073265;28;20012;-76
2022/02/01 08:31:19;;;;;;;12.85;10.68;;;24.80;99.90;;;;;;5071957;28;20033;-76
2022/02/01 08:33:47;;;;;;;11.98;10.63;;;24.80;99.90;;;;;;5071801;28;20506;-75
2022/02/01 08:36:14;;;;;;;13.15;10.80;;;24.80;99.90;;;;;;5071905;28;20481;-74
2022/02/01 08:38:41;;;;;;;12.55;11.35;;;24.80;99.90;;;;;;5073097;28;20052;-76
2022/02/01 08:41:09;;;;;;;13.13;11.93;;;24.80;99.90;;;;;;5071928;28;20036;-76
2022/02/01 08:43:36;;;;;;;13.15;11.63;;;24.80;99.90;;;;;;5073037;28;20023;-75
2022/02/01 08:46:04;;;;;;;13.05;11.75;;;24.90;99.90;;;;;;5073033;28;20020;-76
2022/02/01 08:48:31;;;;;;;12.15;10.95;;;24.90;99.90;;;;;;5073067;28;20049;-76
2022/02/01 08:51:06;;;;;;;12.27;11.00;;;24.90;99.90;;;;;;5073095;28;20083;-76
2022/02/01 08:53:46;;;;;;;14.98;12.07;;;25.00;99.90;;;;;;5072489;28;20017;-76
2022/02/01 08:58:59;;;;;;;13.02;11.45;;;25.00;99.90;;;;;;5072965;28;19912;-76
2022/02/01 09:01:26;;;;;;;11.82;10.73;;;25.00;99.90;;;;;;5072941;28;20020;-76
2022/02/01 09:03:54;;;;;;;11.85;10.85;;;25.00;99.90;;;;;;5072819;28;20421;-76
2022/02/01 09:06:24;;;;;;;11.82;10.63;;;25.00;99.90;;;;;;5072716;28;20063;-76
2022/02/01 09:08:52;;;;;;;13.80;11.05;;;25.00;99.90;;;;;;5072819;28;20130;-76
2022/02/01 09:11:22;;;;;;;10.85;9.77;;;25.00;99.90;;;;;;5072855;28;20025;-76
2022/02/01 09:13:50;;;;;;;9.90;9.00;;;25.00;99.90;;;;;;5073221;28;20027;-76
2022/02/01 09:16:20;;;;;;;10.13;9.13;;;25.00;99.90;;;;;;5072895;28;20030;-76
2022/02/01 09:18:48;;;;;;;10.55;9.13;;;25.00;99.90;;;;;;5073369;28;20021;-76
2022/02/01 09:21:16;;;;;;;10.85;9.52;;;25.10;99.90;;;;;;5072776;28;20026;-76
2022/02/01 09:23:43;;;;;;;10.50;9.40;;;25.10;99.90;;;;;;5072834;28;20116;-76
2022/02/01 09:26:12;;;;;;;9.38;8.50;;;25.10;99.90;;;;;;5071432;28;20048;-76
2022/02/01 09:28:39;;;;;;;10.68;8.80;;;25.10;99.90;;;;;;5072771;28;20021;-76
2022/02/01 09:31:08;;;;;;;10.35;9.38;;;25.10;99.90;;;;;;5072707;28;20021;-76
2022/02/01 09:33:35;;;;;;;10.82;9.73;;;25.10;99.90;;;;;;5072700;28;20048;-76
2022/02/01 09:36:03;;;;;;;10.43;9.43;;;25.20;99.90;;;;;;5072394;28;20086;-77
2022/02/01 09:38:32;;;;;;;11.25;10.15;;;25.20;99.90;;;;;;5071276;28;20437;-76
2022/02/01 09:41:00;;;;;;;10.50;9.40;;;25.20;99.90;;;;;;5072243;28;20080;-75
2022/02/01 09:43:27;;;;;;;10.20;9.18;;;25.30;99.90;;;;;;5072511;28;20534;-75
2022/02/01 09:45:57;;;;;;;10.15;9.15;;;25.30;99.90;;;;;;5072522;28;20120;-77
2022/02/01 09:48:24;;;;;;;10.60;9.55;;;25.30;99.90;;;;;;5072586;28;20028;-74
2022/02/01 09:50:52;;;;;;;9.90;9.00;;;25.20;99.90;;;;;;5072270;28;20054;-75
2022/02/01 09:53:21;;;;;;;10.38;9.38;;;25.20;99.90;;;;;;5072125;28;20362;-75
2022/02/01 09:55:48;;;;;;;9.57;8.73;;;25.30;99.90;;;;;;5072043;28;20020;-75
2022/02/01 09:58:16;;;;;;;9.95;9.05;;;25.40;99.90;;;;;;5072111;28;20023;-75
2022/02/01 10:00:51;;;;;;;10.02;9.18;;;25.40;99.90;;;;;;5071999;28;20104;-75
2022/02/01 10:03:21;;;;;;;9.98;8.88;;;25.40;99.90;;;;;;5071951;28;20095;-76
2022/02/01 10:06:09;;;;;;;9.40;8.50;;;25.40;99.90;;;;;;5075081;28;20045;-75
2022/02/01 10:08:38;;;;;;;10.00;9.00;;;25.30;99.90;;;;;;5075793;28;20099;-75
2022/02/01 10:11:11;;;;;;;10.23;9.10;;;25.30;99.90;;;;;;5076048;28;20437;-76
2022/02/01 10:13:40;;;;;;;9.43;8.55;;;25.20;99.90;;;;;;5075934;28;20017;-75
2022/02/01 10:16:29;;;;;;;10.05;9.15;;;25.20;99.90;;;;;;5076020;28;20108;-75
2022/02/01 10:19:11;;;;;;;9.50;8.60;;;25.20;99.90;;;;;;5075898;28;20029;-75
2022/02/01 10:21:54;;;;;;;9.38;8.48;;;25.20;99.90;;;;;;5074522;28;20081;-75
2022/02/01 10:24:37;;;;;;;8.93;8.13;;;25.20;99.90;;;;;;5075848;28;20074;-76
2022/02/01 10:27:10;;;;;;;9.15;8.25;;;25.20;99.90;;;;;;5075760;28;20024;-75
2022/02/01 10:29:40;;;;;;;8.90;8.07;;;25.20;99.90;;;;;;5075750;28;20028;-75
2022/02/01 10:32:27;;;;;;;9.67;8.67;;;25.20;99.90;;;;;;5075686;28;20025;-75
2022/02/01 10:34:57;;;;;;;9.57;8.45;;;25.10;99.90;;;;;;5075711;28;20016;-75
2022/02/01 10:37:26;;;;;;;8.80;7.95;;;25.20;99.90;;;;;;5075583;28;20311;-75
2022/02/01 10:39:58;;;;;;;7.72;6.97;;;25.20;99.90;;;;;;5075501;28;20028;-75
2022/02/01 10:42:27;;;;;;;7.38;6.75;;;25.10;99.90;;;;;;5074173;28;20025;-76
2022/02/01 10:44:59;;;;;;;8.93;7.20;;;25.20;99.90;;;;;;5075498;28;20099;-75
2022/02/01 10:47:34;;;;;;;7.70;6.90;;;25.20;99.90;;;;;;5075427;28;20020;-76
2022/02/01 10:50:16;;;;;;;7.32;6.63;;;25.10;99.90;;;;;;5075427;28;20099;-74
2022/02/01 10:52:46;;;;;;;7.80;6.60;;;25.20;99.90;;;;;;5075456;28;20020;-75
2022/02/01 10:55:15;;;;;;;7.57;6.78;;;25.20;99.90;;;;;;5075592;28;20070;-74
2022/02/01 10:57:43;;;;;;;7.30;6.30;;;25.10;99.90;;;;;;5075204;28;20025;-74
2022/02/01 11:00:16;;;;;;;6.75;6.15;;;25.10;99.90;;;;;;5075212;28;20097;-74
2022/02/01 11:02:46;;;;;;;7.28;6.57;;;25.10;99.90;;;;;;5075188;28;20021;-75
2022/02/01 11:05:19;;;;;;;8.00;6.05;;;25.10;99.90;;;;;;5074962;28;20039;-76
2022/02/01 11:07:55;;;;;;;6.53;5.97;;;25.00;99.90;;;;;;5075069;28;20094;-76
2022/02/01 11:10:23;;;;;;;7.15;6.38;;;25.00;99.90;;;;;;5073785;28;20027;-76
2022/02/01 11:12:51;;;;;;;6.80;6.18;;;25.00;99.90;;;;;;5072600;28;20543;-75
2022/02/01 11:15:26;;;;;;;7.10;6.50;;;25.00;99.90;;;;;;5073120;28;20052;-75
2022/02/01 11:17:54;;;;;;;7.22;6.40;;;25.00;99.90;;;;;;5074909;28;20025;-75
2022/02/01 11:20:32;;;;;;;6.80;6.18;;;25.00;99.90;;;;;;5074837;28;20024;-75
2022/02/01 11:23:11;;;;;;;6.80;6.20;;;25.00;99.90;;;;;;5074718;28;20428;-75
2022/02/01 11:25:47;;;;;;;7.30;6.60;;;25.00;99.90;;;;;;5074700;28;20112;-75
2022/02/01 11:28:46;;;;;;;7.28;6.55;;;24.90;99.90;;;;;;5073403;28;20111;-75
2022/02/01 11:31:14;;;;;;;6.43;5.93;;;25.00;99.90;;;;;;5073290;28;20089;-76
2022/02/01 11:33:44;;;;;;;6.47;5.70;;;25.00;99.90;;;;;;5073268;28;20021;-75
2022/02/01 11:36:13;;;;;;;7.67;5.93;;;25.00;99.90;;;;;;5074622;28;20099;-75
2022/02/01 11:38:58;;;;;;;6.88;6.28;;;24.90;99.90;;;;;;5073159;28;20740;-74
2022/02/01 11:41:37;;;;;;;6.55;5.95;;;24.90;99.90;;;;;;5074337;28;20020;-74
2022/02/01 11:44:26;;;;;;;6.63;6.03;;;24.90;99.90;;;;;;5073010;28;20028;-74
2022/02/01 11:47:07;;;;;;;6.18;5.57;;;24.90;99.90;;;;;;5072889;28;20035;-74
2022/02/01 11:49:37;;;;;;;10.07;6.68;;;24.90;99.90;;;;;;5074236;28;20029;-74
2022/02/01 11:52:14;;;;;;;7.47;6.85;;;24.80;99.90;;;;;;5074154;28;20047;-74
2022/02/01 11:54:45;;;;;;;7.93;6.43;;;24.80;99.90;;;;;;5074178;28;20021;-75
2022/02/01 11:57:26;;;;;;;7.22;6.28;;;24.80;99.90;;;;;;5072756;28;20119;-74
2022/02/01 12:00:15;;;;;;;7.07;6.15;;;24.80;99.90;;;;;;5072758;28;20532;-75
2022/02/01 12:02:49;;;;;;;6.85;6.20;;;24.70;99.90;;;;;;5074048;28;20104;-74
2022/02/01 12:05:26;;;;;;;7.18;6.32;;;24.70;99.90;;;;;;5073669;28;20080;-74
2022/02/01 12:08:10;;;;;;;6.82;6.22;;;24.70;99.90;;;;;;5073899;28;20107;-74
2022/02/01 12:10:49;;;;;;;7.20;6.50;;;24.70;99.90;;;;;;5074008;28;20048;-74
2022/02/01 12:13:19;;;;;;;6.88;6.18;;;24.70;99.90;;;;;;5073930;28;20028;-74
2022/02/01 12:15:48;;;;;;;6.72;6.10;;;24.70;99.90;;;;;;5072429;28;20057;-74
2022/02/01 12:18:34;;;;;;;6.20;5.63;;;24.70;99.90;;;;;;5073674;28;20111;-74
2022/02/01 12:21:21;;;;;;;6.57;5.97;;;24.70;99.90;;;;;;5073752;28;20448;-74
2022/02/01 12:23:51;;;;;;;6.65;6.00;;;24.70;99.90;;;;;;5073567;28;20481;-74
2022/02/01 12:26:33;;;;;;;6.95;5.88;;;24.60;99.90;;;;;;5073145;28;20021;-74
2022/02/01 12:29:10;;;;;;;7.07;6.10;;;24.60;99.90;;;;;;5072032;28;20025;-74
2022/02/01 12:31:38;;;;;;;8.02;5.90;;;24.70;99.90;;;;;;5072088;28;20020;-74
2022/02/01 12:34:11;;;;;;;6.55;5.82;;;24.60;99.90;;;;;;5073371;28;20021;-74
2022/02/01 12:36:41;;;;;;;6.20;5.60;;;24.60;99.90;;;;;;5073394;28;20016;-74
2022/02/01 12:39:16;;;;;;;6.63;5.80;;;24.70;99.90;;;;;;5073308;28;20565;-74
2022/02/01 12:42:00;;;;;;;5.88;5.28;;;24.70;99.90;;;;;;5072025;28;20035;-74
2022/02/01 12:47:19;;;;;;;6.18;5.60;;;24.70;99.90;;;;;;5073147;28;20032;-74
2022/02/01 12:49:51;;;;;;;5.90;5.30;;;24.70;99.90;;;;;;5071901;28;20044;-74
2022/02/01 12:52:20;;;;;;;5.90;5.38;;;24.70;99.90;;;;;;5073207;28;20020;-73
2022/02/01 12:54:48;;;;;;;6.88;5.28;;;24.70;99.90;;;;;;5071859;28;20108;-74
2022/02/01 12:57:19;;;;;;;8.23;5.32;;;24.70;99.90;;;;;;5072987;28;20043;-73
2022/02/01 12:59:50;;;;;;;6.22;5.15;;;24.70;99.90;;;;;;5073049;28;20120;-73
2022/02/01 13:02:29;;;;;;;5.38;4.88;;;24.70;99.90;;;;;;5071761;28;20125;-74
2022/02/01 13:05:05;;;;;;;5.85;4.95;;;24.70;99.90;;;;;;5071378;28;20114;-74
2022/02/01 13:16:21;;;;;;;4.60;4.20;;;24.80;99.90;;;;;;5073192;28;20452;-74
2022/02/01 13:21:25;;;;;;;4.97;4.25;;;24.90;99.90;;;;;;5072862;28;20025;-74
2022/02/01 13:23:53;;;;;;;5.05;4.15;;;25.00;99.90;;;;;;5072822;28;20082;-74
2022/02/01 13:26:32;;;;;;;4.50;4.00;;;24.90;99.90;;;;;;5072719;28;20112;-75
2022/02/01 13:29:08;;;;;;;4.60;4.15;;;25.00;99.90;;;;;;5072814;28;20021;-74
2022/02/01 13:31:38;;;;;;;5.20;4.28;;;25.00;99.90;;;;;;5071361;28;20436;-74
2022/02/01 13:34:09;;;;;;;5.30;3.90;;;25.00;99.90;;;;;;5072804;28;20047;-74
2022/02/01 13:36:51;;;;;;;4.13;3.45;;;24.90;99.90;;;;;;5072624;28;20037;-74
2022/02/01 13:39:30;;;;;;;4.20;3.80;;;24.90;99.90;;;;;;5075597;28;20066;-74
2022/02/01 13:42:06;;;;;;;4.90;3.78;;;24.90;99.90;;;;;;5077119;28;20033;-74
2022/02/01 13:44:34;;;;;;;5.38;3.70;;;25.00;99.90;;;;;;5076671;28;20025;-74
2022/02/01 13:47:04;;;;;;;4.43;3.83;;;24.90;99.90;;;;;;5076438;28;20032;-74
2022/02/01 13:49:33;;;;;;;4.07;3.67;;;24.90;99.90;;;;;;5076626;28;20020;-75
2022/02/01 13:52:05;;;;;;;4.25;3.65;;;24.90;99.90;;;;;;5075228;28;20111;-75
2022/02/01 13:54:38;;;;;;;4.18;3.60;;;24.90;99.90;;;;;;5076551;28;20020;-75
2022/02/01 13:57:15;;;;;;;4.45;3.50;;;24.90;99.90;;;;;;5076506;28;20048;-75
2022/02/01 13:59:43;;;;;;;4.05;3.45;;;24.90;99.90;;;;;;5074996;28;20028;-74
2022/02/01 14:02:20;;;;;;;4.68;3.50;;;24.90;99.90;;;;;;5076254;28;20025;-74
2022/02/01 14:04:57;;;;;;;4.10;3.40;;;25.00;99.90;;;;;;5076011;28;20048;-74
2022/02/01 14:08:00;;;;;;;3.80;3.40;;;25.00;99.90;;;;;;5074922;28;20051;-74
2022/02/01 14:10:29;;;;;;;5.20;3.70;;;25.00;99.90;;;;;;5075851;28;20035;-74
2022/02/01 14:26:46;;;;;;;4.22;3.13;;;25.00;99.90;;;;;;5075838;28;20025;-74
2022/02/01 14:34:42;;;;;;;3.13;2.83;;;25.10;99.90;;;;;;5075852;28;20028;-74
2022/02/01 14:37:41;;;;;;;3.95;2.80;;;25.10;99.90;;;;;;5074448;28;20048;-73
2022/02/01 14:45:11;;;;;;;10.85;4.35;;;25.20;99.90;;;;;;5075787;28;20032;-74
2022/02/01 14:47:39;;;;;;;10.38;4.75;;;25.10;99.90;;;;;;5075435;28;20099;-74
2022/02/01 14:53:28;;;;;;;22.08;7.35;;;25.00;99.90;;;;;;5075541;28;20031;-74
2022/02/01 14:56:07;;;;;;;26.27;7.93;;;24.60;99.90;;;;;;5074170;28;20401;-74
2022/02/01 15:06:59;;;;;;;33.58;9.40;;;23.80;99.90;;;;;;5075131;28;20036;-74
2022/02/01 15:12:28;;;;;;;37.35;8.95;;;23.50;99.90;;;;;;5075364;28;20062;-73
2022/02/01 15:14:56;;;;;;;29.70;8.90;;;23.50;99.90;;;;;;5075003;28;20069;-74
2022/02/01 15:17:23;;;;;;;32.47;9.43;;;23.40;99.90;;;;;;5074964;28;20018;-74
2022/02/01 15:19:50;;;;;;;33.10;9.82;;;23.40;99.90;;;;;;5073599;28;20021;-74
2022/02/01 15:22:19;;;;;;;30.65;8.90;;;23.40;99.90;;;;;;5074916;28;20017;-74
2022/02/01 15:24:46;;;;;;;35.97;9.70;;;23.40;99.90;;;;;;5073538;28;20062;-75